Time;durP1;ratioP1;P1;durP2;ratioP2;P2;SDS_P1;SDS_P2;PMS_P1;PMS_P2;Temp;Humidity;BMP_temperature;BMP_pressure;BME280_temperature;BME280_humidity;BME280_pressure;Samples;Min_cycle;Max_cycle;Signal;HPM_P1;HPM_P2
2022/02/10 00:13:26;;;;;;;3.87;2.67;;;11.20;1.00;;;;;;5100515;28;20448;-67
2022/02/10 00:19:39;;;;;;;3.50;3.20;;;11.40;1.00;;;;;;5106015;28;20446;-67
2022/02/10 00:22:17;;;;;;;3.73;2.97;;;11.40;1.00;;;;;;5103512;28;20415;-67
2022/02/10 00:25:16;;;;;;;3.00;2.60;;;11.40;1.00;;;;;;5101746;28;20425;-68
2022/02/10 00:35:57;;;;;;;2.90;2.30;;;11.50;1.00;;;;;;5099008;28;20529;-70
2022/02/10 00:38:27;;;;;;;4.70;2.10;;;11.40;1.00;;;;;;5105234;28;20497;-68
2022/02/10 00:40:53;;;;;;;3.63;2.20;;;;;;;;;;5103720;28;20478;-70
2022/02/10 00:43:18;;;;;;;2.20;2.00;;;11.40;1.00;;;;;;5106116;28;20499;-70
2022/02/10 00:45:47;;;;;;;3.63;2.67;;;;;;;;;;5096878;28;20481;-69
2022/02/10 00:48:13;;;;;;;2.63;2.43;;;;;;;;;;5102480;28;20232;-68
2022/02/10 00:50:44;;;;;;;3.37;3.07;;;11.40;1.00;;;;;;5098650;28;20471;-67
2022/02/10 00:55:40;;;;;;;3.13;2.47;;;11.20;1.00;;;;;;5098764;28;20422;-69
2022/02/10 00:58:09;;;;;;;2.53;2.33;;;11.30;1.00;;;;;;5104166;28;20450;-69
2022/02/10 01:11:24;;;;;;;3.03;2.60;;;11.10;1.00;;;;;;5098040;28;20462;-67
2022/02/10 01:13:59;;;;;;;3.50;3.20;;;11.10;1.00;;;;;;5101140;28;20937;-67
2022/02/10 01:30:06;;;;;;;2.40;2.20;;;11.20;1.00;;;;;;5104328;28;20547;-68
2022/02/10 01:32:32;;;;;;;5.37;3.10;;;;;;;;;;5086918;28;20502;-68
2022/02/10 01:34:58;;;;;;;4.17;3.00;;;11.20;1.00;;;;;;5107104;28;20455;-68
2022/02/10 01:37:24;;;;;;;2.33;2.13;;;;;;;;;;5110438;28;20444;-68
2022/02/10 01:40:01;;;;;;;3.57;2.57;;;11.30;1.00;;;;;;5097514;28;20439;-67
2022/02/10 02:04:24;;;;;;;2.63;1.90;;;11.30;1.00;;;;;;5105533;28;20829;-69
2022/02/10 02:06:52;;;;;;;2.60;2.40;;;11.10;1.00;;;;;;5104464;28;20940;-68
2022/02/10 02:09:20;;;;;;;3.43;2.80;;;11.10;1.00;;;;;;5111282;28;20441;-68
2022/02/10 02:11:48;;;;;;;3.20;2.90;;;11.10;1.00;;;;;;5095436;28;20941;-68
2022/02/10 02:14:20;;;;;;;2.87;2.53;;;11.00;1.00;;;;;;5103927;28;20415;-68
2022/02/10 02:16:47;;;;;;;2.83;2.47;;;11.10;1.00;;;;;;5107260;28;20459;-68
2022/02/10 02:19:13;;;;;;;2.80;2.57;;;11.10;1.00;;;;;;5101764;28;20423;-68
2022/02/10 02:21:40;;;;;;;3.90;2.87;;;11.00;1.00;;;;;;5106795;28;20809;-67
2022/02/10 02:24:13;;;;;;;3.17;2.80;;;10.90;1.00;;;;;;5107203;28;20221;-68
2022/02/10 02:26:39;;;;;;;3.17;2.97;;;10.90;1.00;;;;;;5108161;28;20426;-68
2022/02/10 02:29:08;;;;;;;3.03;2.60;;;;;;;;;;5106143;28;20420;-68
2022/02/10 02:31:41;;;;;;;3.00;2.80;;;10.80;1.00;;;;;;5101639;28;20425;-68
2022/02/10 03:06:42;;;;;;;3.97;3.13;;;10.60;1.00;;;;;;5096628;28;20414;-68
2022/02/10 03:09:11;;;;;;;2.47;2.27;;;10.60;1.00;;;;;;5109941;28;20428;-68
2022/02/10 03:11:41;;;;;;;3.87;2.57;;;;;;;;;;5098416;28;20638;-69
2022/02/10 03:14:15;;;;;;;3.30;3.00;;;10.40;1.00;;;;;;5102066;28;20456;-68
2022/02/10 03:22:58;;;;;;;3.20;2.43;;;;;;;;;;5106543;28;20671;-67
2022/02/10 04:03:11;;;;;;;4.27;3.50;;;10.40;1.00;;;;;;5102305;28;20447;-67
2022/02/10 04:16:39;;;;;;;2.77;2.37;;;10.40;1.00;;;;;;5101713;28;20448;-68
2022/02/10 04:22:45;;;;;;;2.80;2.30;;;10.50;1.00;;;;;;5098258;28;20442;-69
2022/02/10 04:25:07;;;;;;;2.40;2.20;;;10.50;1.00;;;;;;5089384;28;20967;-67
2022/02/10 04:28:04;;;;;;;3.70;2.97;;;10.40;1.00;;;;;;5098189;28;20414;-66
2022/02/10 04:30:56;;;;;;;3.03;2.47;;;10.40;1.00;;;;;;5075738;28;20522;-69
2022/02/10 05:21:28;;;;;;;2.23;2.07;;;10.50;1.00;;;;;;5046061;28;20194;-67
2022/02/10 05:34:45;;;;;;;3.43;2.00;;;10.50;1.00;;;;;;5097967;28;20418;-69
2022/02/10 05:37:10;;;;;;;2.73;2.27;;;10.40;1.00;;;;;;5108102;28;20464;-67
2022/02/10 05:39:41;;;;;;;4.23;2.23;;;10.40;1.00;;;;;;5104308;28;20444;-67
2022/02/10 05:50:11;;;;;;;2.50;2.30;;;;;;;;;;5096488;28;20845;-68
2022/02/10 05:52:58;;;;;;;5.37;3.00;;;10.00;1.00;;;;;;5103088;28;21040;-69
2022/02/10 05:58:22;;;;;;;2.67;2.47;;;9.80;1.00;;;;;;5106612;28;20876;-68
2022/02/10 06:55:06;;;;;;;5.23;2.93;;;9.40;1.00;;;;;;5104328;28;20801;-66
2022/02/10 07:08:47;;;;;;;4.70;3.10;;;9.40;1.00;;;;;;5106670;28;20444;-67
2022/02/10 07:17:07;;;;;;;7.83;3.70;;;9.50;1.00;;;;;;5104423;28;20455;-67
2022/02/10 09:04:08;;;;;;;2.90;2.10;;;13.20;1.00;;;;;;5109244;28;20212;-71
2022/02/10 09:18:09;;;;;;;2.60;2.37;;;13.50;1.00;;;;;;5110493;28;20451;-72
2022/02/10 10:00:28;;;;;;;3.00;2.00;;;15.00;1.00;;;;;;5104961;28;20429;-73
2022/02/10 10:03:18;;;;;;;3.40;1.90;;;15.10;1.00;;;;;;5091658;28;20202;-72
2022/02/10 10:05:57;;;;;;;3.40;1.60;;;15.30;1.00;;;;;;5095025;28;20892;-73
2022/02/10 10:08:47;;;;;;;1.90;1.50;;;15.30;1.00;;;;;;5095070;28;20439;-72
2022/02/10 10:14:21;;;;;;;3.47;1.90;;;15.10;1.00;;;;;;5113830;28;20442;-71
2022/02/10 10:17:15;;;;;;;3.37;1.90;;;15.10;1.00;;;;;;5085183;28;20407;-71
2022/02/10 10:25:15;;;;;;;3.50;1.97;;;14.80;1.00;;;;;;5102612;28;20470;-71
2022/02/10 10:48:50;;;;;;;3.63;2.13;;;14.20;1.00;;;;;;5112129;28;20434;-70
2022/02/10 10:50:54;;;;;;;3.17;2.20;;;14.10;1.00;;;;;;5111998;28;20421;-71
2022/02/10 10:53:29;;;;;;;5.23;2.43;;;14.00;1.00;;;;;;5112780;28;20457;-71
2022/02/10 10:56:11;;;;;;;4.33;2.10;;;13.90;1.00;;;;;;5112614;28;20911;-72
2022/02/10 10:58:44;;;;;;;7.20;2.40;;;13.90;1.00;;;;;;5102167;28;20419;-72
2022/02/10 11:03:40;;;;;;;2.90;2.10;;;13.70;1.00;;;;;;5098807;28;20906;-72
2022/02/10 11:38:26;;;;;;;7.07;3.17;;;14.40;1.00;;;;;;5110475;28;20495;-72
2022/02/10 11:41:29;;;;;;;5.13;3.00;;;14.50;1.00;;;;;;5111698;28;20428;-72
2022/02/10 11:47:14;;;;;;;4.30;3.73;;;14.20;1.00;;;;;;5105307;28;20933;-72
2022/02/10 14:09:15;;;;;;;10.00;7.37;;;11.00;1.00;;;;;;5100435;28;20489;-63
2022/02/10 14:14:36;;;;;;;8.27;6.50;;;;;;;;;;5095534;28;20490;-64
2022/02/10 14:17:07;;;;;;;8.60;6.90;;;11.00;1.00;;;;;;5093303;28;20436;-64
2022/02/10 14:27:19;;;;;;;10.13;7.00;;;10.80;1.00;;;;;;5107598;28;20581;-64
2022/02/10 14:29:45;;;;;;;8.70;6.53;;;10.90;1.00;;;;;;5093338;28;21674;-65
2022/02/10 14:32:15;;;;;;;10.77;7.77;;;10.90;1.00;;;;;;5098982;28;20436;-63
2022/02/10 14:43:29;;;;;;;13.57;8.30;;;10.80;1.00;;;;;;5096681;28;20285;-64
2022/02/10 15:48:48;;;;;;;11.40;8.60;;;10.20;1.00;;;;;;5097036;28;20769;-65
2022/02/10 16:15:42;;;;;;;16.27;10.30;;;10.10;1.00;;;;;;5096788;28;20794;-65
2022/02/10 16:17:55;;;;;;;11.30;8.23;;;;;;;;;;5107416;28;20451;-65
2022/02/10 16:20:23;;;;;;;16.07;10.37;;;10.10;1.00;;;;;;5095602;28;20437;-64
2022/02/10 16:23:05;;;;;;;10.80;9.70;;;10.10;1.00;;;;;;5104860;28;20878;-66
2022/02/10 16:25:34;;;;;;;12.83;9.77;;;10.00;1.00;;;;;;5088752;28;20446;-64
2022/02/10 16:28:11;;;;;;;15.73;10.90;;;10.00;1.00;;;;;;5091035;28;20950;-63
2022/02/10 16:30:38;;;;;;;12.90;10.53;;;10.00;1.00;;;;;;5100451;28;20492;-65
2022/02/10 16:33:05;;;;;;;11.50;9.47;;;9.90;1.00;;;;;;5107173;28;20414;-64
2022/02/10 16:35:31;;;;;;;11.60;10.13;;;10.00;1.00;;;;;;5109106;28;20463;-64
2022/02/10 16:37:58;;;;;;;12.47;10.83;;;10.00;1.00;;;;;;5106693;28;20451;-65
2022/02/10 16:40:24;;;;;;;12.70;10.20;;;10.00;1.00;;;;;;5106216;28;20925;-64
2022/02/10 16:42:51;;;;;;;15.70;10.80;;;10.00;1.00;;;;;;5102376;28;20442;-65
2022/02/10 16:45:17;;;;;;;20.07;11.90;;;10.00;1.00;;;;;;5093730;28;20501;-63
2022/02/10 16:47:43;;;;;;;13.53;11.70;;;9.80;1.00;;;;;;5083108;28;20440;-64
2022/02/10 16:50:09;;;;;;;15.20;12.20;;;9.70;1.00;;;;;;5095441;28;20450;-65
2022/02/10 16:52:40;;;;;;;14.07;11.37;;;9.80;1.00;;;;;;5107760;28;20552;-65
2022/02/10 16:55:18;;;;;;;16.90;12.33;;;9.70;1.00;;;;;;5103272;28;20432;-62
2022/02/10 16:58:06;;;;;;;15.00;11.90;;;;;;;;;;5096349;28;20479;-65
2022/02/10 17:14:07;;;;;;;14.00;11.50;;;9.70;1.00;;;;;;5094681;28;20445;-63
2022/02/10 17:15:25;;;;;;;14.20;10.60;;;9.80;1.00;;;;;;5106041;28;20475;-64
2022/02/10 17:17:22;;;;;;;15.20;11.60;;;14.30;1.00;;;;;;5098023;28;20438;-64
2022/02/10 17:25:11;;;;;;;21.33;10.70;;;10.00;1.00;;;;;;5092692;28;20487;-65
2022/02/10 17:27:41;;;;;;;15.83;10.60;;;9.90;1.00;;;;;;5101069;28;20451;-63
2022/02/10 17:33:05;;;;;;;14.33;10.47;;;9.90;1.00;;;;;;5109547;28;20746;-66
2022/02/10 17:36:04;;;;;;;11.17;9.87;;;10.10;1.00;;;;;;5104526;28;20581;-66
2022/02/10 17:53:02;;;;;;;10.77;9.43;;;10.00;1.00;;;;;;5069749;28;20470;-65
2022/02/10 17:55:28;;;;;;;10.60;9.50;;;;;;;;;;5094361;28;20508;-65
2022/02/10 17:57:53;;;;;;;11.40;9.17;;;10.00;1.00;;;;;;5100902;28;20443;-65
2022/02/10 18:00:21;;;;;;;10.40;9.30;;;10.00;1.00;;;;;;5093441;28;20455;-65
2022/02/10 18:02:47;;;;;;;13.60;9.40;;;10.00;1.00;;;;;;5094825;28;20544;-62
2022/02/10 18:05:32;;;;;;;11.33;9.53;;;10.00;1.00;;;;;;5096664;28;20439;-65
2022/02/10 18:08:00;;;;;;;12.30;9.73;;;9.90;1.00;;;;;;5096033;28;20482;-64
2022/02/10 18:15:47;;;;;;;11.20;9.53;;;10.00;1.00;;;;;;5111602;28;20447;-65
2022/02/10 18:18:22;;;;;;;10.20;9.20;;;9.90;1.00;;;;;;5090609;28;20921;-64
2022/02/10 18:20:55;;;;;;;12.47;9.30;;;10.00;1.00;;;;;;5099804;28;21018;-65
2022/02/10 18:23:29;;;;;;;13.73;9.87;;;;;;;;;;5103718;28;20431;-64
2022/02/10 18:26:08;;;;;;;13.33;9.80;;;9.90;1.00;;;;;;5102010;28;20432;-65
2022/02/10 18:28:49;;;;;;;12.40;9.07;;;9.90;1.00;;;;;;5104194;28;20492;-64
2022/02/10 19:05:27;;;;;;;13.83;10.57;;;9.70;1.00;;;;;;5103019;28;20532;-65
2022/02/10 19:06:48;;;;;;;14.37;10.30;;;9.60;1.00;;;;;;5098442;28;20576;-64
2022/02/10 19:09:25;;;;;;;14.90;11.47;;;9.60;1.00;;;;;;5092327;28;20528;-65
2022/02/10 19:11:59;;;;;;;12.43;9.97;;;;;;;;;;5103833;28;20770;-65
2022/02/10 19:14:25;;;;;;;12.40;10.80;;;;;;;;;;5079738;28;20415;-65
2022/02/10 19:16:50;;;;;;;15.83;12.00;;;9.50;1.00;;;;;;5093371;28;20473;-64
2022/02/10 19:19:16;;;;;;;13.00;11.17;;;9.50;1.00;;;;;;5100961;28;21075;-66
2022/02/10 19:21:41;;;;;;;15.67;10.47;;;9.60;1.00;;;;;;5094272;28;20206;-65
2022/02/10 19:24:07;;;;;;;13.40;11.07;;;9.40;1.00;;;;;;5098775;28;20210;-65
2022/02/10 19:26:32;;;;;;;17.20;11.97;;;9.50;1.00;;;;;;5104320;28;20287;-64
2022/02/10 19:28:58;;;;;;;14.03;11.47;;;;;;;;;;5104276;28;20185;-65
2022/02/10 19:31:25;;;;;;;15.20;11.00;;;9.50;1.00;;;;;;5095660;28;20241;-65
2022/02/10 19:33:53;;;;;;;15.63;12.00;;;9.40;1.00;;;;;;5093074;28;20863;-64
2022/02/10 19:36:19;;;;;;;15.23;12.20;;;9.60;1.00;;;;;;5097404;28;20958;-65
2022/02/10 19:38:44;;;;;;;16.40;12.70;;;9.60;1.00;;;;;;5084299;28;20506;-64
2022/02/10 19:41:10;;;;;;;14.10;11.33;;;9.50;1.00;;;;;;5108646;28;20694;-66
2022/02/10 19:43:37;;;;;;;14.27;12.20;;;;;;;;;;5104931;28;20296;-66
2022/02/10 19:46:02;;;;;;;16.20;11.97;;;9.40;1.00;;;;;;5093986;28;20182;-65
2022/02/10 19:48:28;;;;;;;18.00;12.70;;;9.40;1.00;;;;;;5098320;28;20440;-65
2022/02/10 19:50:54;;;;;;;16.20;12.00;;;9.30;1.00;;;;;;5107707;28;20574;-65
2022/02/10 19:53:22;;;;;;;13.27;11.87;;;9.40;1.00;;;;;;5097985;28;20315;-65
2022/02/10 19:55:50;;;;;;;18.83;13.47;;;;;;;;;;5092987;28;20444;-66
2022/02/10 19:58:21;;;;;;;15.27;12.20;;;9.30;1.00;;;;;;5097531;28;20436;-65
2022/02/10 20:00:48;;;;;;;16.97;12.50;;;9.20;1.00;;;;;;5102003;28;20443;-66
2022/02/10 20:03:20;;;;;;;17.63;13.17;;;9.20;1.00;;;;;;5099702;28;20431;-66
2022/02/10 20:05:48;;;;;;;18.33;13.80;;;9.30;1.00;;;;;;5096886;28;20779;-65
2022/02/10 20:08:17;;;;;;;18.23;12.43;;;9.20;1.00;;;;;;5105818;28;20917;-65
2022/02/10 20:10:43;;;;;;;16.63;13.70;;;9.30;1.00;;;;;;5092317;28;20443;-66
2022/02/10 20:13:13;;;;;;;20.83;14.00;;;9.30;1.00;;;;;;5092532;28;20941;-66
2022/02/10 20:15:38;;;;;;;16.87;13.10;;;9.30;1.00;;;;;;5105080;28;20451;-65
2022/02/10 20:18:05;;;;;;;17.43;13.90;;;9.30;1.00;;;;;;5097070;28;20447;-66
2022/02/10 20:20:31;;;;;;;17.33;14.13;;;9.30;1.00;;;;;;5104291;28;20527;-66
2022/02/10 20:22:57;;;;;;;17.80;13.63;;;9.30;1.00;;;;;;5109893;28;20439;-66
2022/02/10 20:25:22;;;;;;;16.70;14.00;;;9.30;1.00;;;;;;5103687;28;20493;-65
2022/02/10 20:27:48;;;;;;;18.20;15.10;;;9.40;1.00;;;;;;5093535;28;20178;-65
2022/02/10 20:30:14;;;;;;;18.30;13.67;;;9.40;1.00;;;;;;5097234;28;20174;-65
2022/02/10 20:32:39;;;;;;;15.97;12.80;;;9.40;1.00;;;;;;5103380;28;20227;-65
2022/02/10 20:35:07;;;;;;;15.93;12.97;;;9.40;1.00;;;;;;5101703;28;20187;-65
2022/02/10 20:37:33;;;;;;;19.13;14.03;;;9.40;1.00;;;;;;5107863;28;20193;-65
2022/02/10 20:40:01;;;;;;;15.90;12.20;;;9.30;1.00;;;;;;5094332;28;20445;-64
2022/02/10 20:42:28;;;;;;;16.40;13.00;;;9.40;1.00;;;;;;5096266;28;20197;-65
2022/02/10 20:44:55;;;;;;;16.00;13.30;;;;;;;;;;5099422;28;20467;-65
2022/02/10 20:47:23;;;;;;;17.80;13.13;;;9.40;1.00;;;;;;5091354;28;20437;-65
2022/02/10 20:49:49;;;;;;;18.43;13.27;;;9.50;1.00;;;;;;5099180;28;20447;-64
2022/02/10 20:52:15;;;;;;;17.17;12.37;;;9.60;1.00;;;;;;5102324;28;20465;-65
2022/02/10 20:54:42;;;;;;;16.80;14.10;;;9.60;1.00;;;;;;5075180;28;20178;-65
2022/02/10 20:57:08;;;;;;;19.27;14.07;;;9.60;1.00;;;;;;5101022;28;20448;-65
2022/02/10 20:59:42;;;;;;;21.20;16.10;;;9.60;1.00;;;;;;5101344;28;20900;-63
2022/02/10 21:02:15;;;;;;;21.07;15.87;;;9.60;1.00;;;;;;5107088;28;20531;-65
2022/02/10 21:04:56;;;;;;;18.07;13.90;;;9.70;1.00;;;;;;5103551;28;20456;-64
2022/02/10 21:07:30;;;;;;;18.93;14.23;;;9.80;1.00;;;;;;5107380;28;20437;-65
2022/02/10 21:10:00;;;;;;;19.23;13.37;;;;;;;;;;5097266;28;20830;-64
2022/02/10 21:12:37;;;;;;;15.63;13.00;;;9.70;1.00;;;;;;5100325;28;20404;-65
2022/02/10 21:15:06;;;;;;;16.70;13.00;;;9.50;1.00;;;;;;5092914;28;20445;-64
2022/02/10 21:17:32;;;;;;;19.97;13.83;;;9.40;1.00;;;;;;5098349;28;20588;-65
2022/02/10 21:20:01;;;;;;;31.37;18.17;;;9.40;1.00;;;;;;5110437;28;20486;-66
2022/02/10 21:22:30;;;;;;;20.23;14.20;;;9.30;1.00;;;;;;5104279;28;20547;-66
2022/02/10 21:25:05;;;;;;;17.13;13.93;;;9.20;1.00;;;;;;5100970;28;20487;-65
2022/02/10 21:27:45;;;;;;;16.33;14.10;;;9.10;1.00;;;;;;5095774;28;20444;-64
2022/02/10 21:30:13;;;;;;;19.93;13.57;;;9.10;1.00;;;;;;5091724;28;20444;-64
2022/02/10 21:32:46;;;;;;;17.03;12.50;;;9.10;1.00;;;;;;5101084;28;20455;-65
2022/02/10 21:37:50;;;;;;;20.37;12.93;;;9.20;1.00;;;;;;5103594;28;20436;-64
2022/02/10 21:57:00;;;;;;;16.30;12.23;;;9.20;1.00;;;;;;5103266;28;20415;-64
2022/02/10 21:59:49;;;;;;;16.23;11.60;;;9.20;1.00;;;;;;5106997;28;20439;-64
2022/02/10 22:10:49;;;;;;;14.27;11.43;;;9.20;1.00;;;;;;5106424;28;21023;-65
2022/02/10 22:18:47;;;;;;;15.93;11.93;;;9.40;1.00;;;;;;5110034;28;20478;-66
2022/02/10 22:21:20;;;;;;;13.37;11.87;;;9.40;1.00;;;;;;5091836;28;20447;-65
2022/02/10 22:23:47;;;;;;;15.43;12.30;;;9.40;1.00;;;;;;5103525;28;20464;-65
2022/02/10 22:26:24;;;;;;;15.53;11.60;;;;;;;;;;5109684;28;20428;-63
2022/02/10 22:29:28;;;;;;;16.63;11.23;;;;;;;;;;5109140;28;20576;-65
2022/02/10 22:32:02;;;;;;;13.77;10.63;;;9.50;1.00;;;;;;5092764;28;20517;-65
2022/02/10 22:34:37;;;;;;;13.50;11.67;;;9.50;1.00;;;;;;5103209;28;20467;-65
2022/02/10 22:37:07;;;;;;;15.43;11.73;;;9.50;1.00;;;;;;5105608;28;20450;-64
2022/02/10 22:39:40;;;;;;;13.17;11.10;;;9.40;1.00;;;;;;5101918;28;20432;-65
2022/02/10 22:42:06;;;;;;;14.00;10.93;;;9.30;1.00;;;;;;5092747;28;20414;-64
2022/02/10 22:44:32;;;;;;;13.77;10.80;;;9.30;1.00;;;;;;5097569;28;20495;-64
2022/02/10 22:46:58;;;;;;;16.17;12.33;;;9.40;1.00;;;;;;5101889;28;20527;-65
2022/02/10 22:49:24;;;;;;;15.10;11.60;;;9.40;1.00;;;;;;5107883;28;20534;-64
2022/02/10 22:51:50;;;;;;;13.30;11.53;;;9.30;1.00;;;;;;5099873;28;20241;-64
2022/02/10 22:54:17;;;;;;;14.07;10.03;;;9.20;1.00;;;;;;5099883;28;20528;-65
2022/02/10 22:56:45;;;;;;;12.73;11.00;;;9.20;1.00;;;;;;5101243;28;20449;-64
2022/02/10 22:59:10;;;;;;;16.00;10.83;;;9.20;1.00;;;;;;5101981;28;20468;-65
2022/02/10 23:01:37;;;;;;;17.00;10.97;;;9.20;1.00;;;;;;5095979;28;20473;-65
2022/02/10 23:04:04;;;;;;;12.43;11.00;;;9.10;1.00;;;;;;5081094;28;20202;-65
2022/02/10 23:06:29;;;;;;;14.57;11.93;;;9.00;1.00;;;;;;5111289;28;20438;-65
2022/02/10 23:08:55;;;;;;;15.70;13.07;;;9.00;1.00;;;;;;5109577;28;20551;-64
2022/02/10 23:11:29;;;;;;;15.03;11.77;;;9.00;1.00;;;;;;5082801;28;20179;-64
2022/02/10 23:13:57;;;;;;;13.33;11.93;;;9.00;1.00;;;;;;5108787;28;20493;-65
2022/02/10 23:16:23;;;;;;;14.67;12.40;;;9.00;1.00;;;;;;5110232;28;20921;-64
2022/02/10 23:18:48;;;;;;;15.03;11.90;;;9.00;1.00;;;;;;5098836;28;20437;-64
2022/02/10 23:21:15;;;;;;;14.97;11.60;;;8.80;1.00;;;;;;5112265;28;20535;-65
2022/02/10 23:23:47;;;;;;;6.80;5.77;;;8.40;1.00;;;;;;5109150;28;20201;-64
2022/02/10 23:26:15;;;;;;;6.83;6.07;;;8.00;1.00;;;;;;5105922;28;20432;-64
2022/02/10 23:28:45;;;;;;;8.20;5.20;;;7.90;1.00;;;;;;5103649;28;20437;-64
2022/02/10 23:31:12;;;;;;;9.20;5.70;;;7.70;1.00;;;;;;5102194;28;20432;-65
2022/02/10 23:33:41;;;;;;;8.63;4.83;;;7.70;1.00;;;;;;5100809;28;20448;-64
2022/02/10 23:43:54;;;;;;;7.13;4.50;;;7.60;1.00;;;;;;5108458;28;20482;-64
2022/02/10 23:46:20;;;;;;;5.60;4.17;;;7.60;1.00;;;;;;5099394;28;20439;-65
2022/02/10 23:48:46;;;;;;;6.50;4.67;;;7.80;1.00;;;;;;5094771;28;20182;-64
2022/02/10 23:51:12;;;;;;;6.07;4.40;;;7.70;1.00;;;;;;5104982;28;20428;-65
2022/02/10 23:53:38;;;;;;;8.00;4.93;;;7.80;1.00;;;;;;5097819;28;20440;-64
2022/02/10 23:56:09;;;;;;;8.37;4.87;;;7.80;1.00;;;;;;5101405;28;20178;-64
